Time;durP1;ratioP1;P1;durP2;ratioP2;P2;SDS_P1;SDS_P2;PMS_P1;PMS_P2;Temp;Humidity;BMP_temperature;BMP_pressure;BME280_temperature;BME280_humidity;BME280_pressure;Samples;Min_cycle;Max_cycle;Signal;HPM_P1;HPM_P2
2021/04/14 00:00:07;;;;;;;15.18;8.07;;;5.30;99.90;;;;;;5054202;28;20033;-56
2021/04/14 00:02:34;;;;;;;14.77;8.13;;;5.20;99.90;;;;;;5053565;28;20043;-56
2021/04/14 00:05:00;;;;;;;14.35;8.60;;;5.20;99.90;;;;;;5053748;28;20040;-56
2021/04/14 00:07:26;;;;;;;12.95;7.72;;;5.20;99.90;;;;;;5054305;28;20439;-56
2021/04/14 00:09:52;;;;;;;14.38;7.85;;;5.00;99.90;;;;;;5053444;28;20033;-58
2021/04/14 00:12:18;;;;;;;14.02;7.97;;;4.90;99.90;;;;;;5053487;28;20033;-57
2021/04/14 00:14:45;;;;;;;12.45;8.25;;;4.90;99.90;;;;;;5053740;28;20103;-58
2021/04/14 00:17:10;;;;;;;14.13;7.90;;;4.80;99.90;;;;;;5053803;28;20086;-57
2021/04/14 00:19:36;;;;;;;12.77;7.75;;;4.70;99.90;;;;;;5053441;28;20029;-56
2021/04/14 00:22:02;;;;;;;14.63;7.57;;;4.70;99.90;;;;;;5053507;28;20078;-55
2021/04/14 00:24:28;;;;;;;10.77;7.80;;;4.70;99.90;;;;;;5052283;28;20045;-57
2021/04/14 00:26:54;;;;;;;10.23;7.50;;;4.70;99.90;;;;;;5051440;28;20416;-57
2021/04/14 00:29:20;;;;;;;11.80;7.45;;;4.80;99.90;;;;;;5050864;28;20021;-56
2021/04/14 00:31:46;;;;;;;12.60;7.80;;;4.70;99.90;;;;;;5052312;28;20033;-57
2021/04/14 00:34:20;;;;;;;15.18;8.63;;;4.70;99.90;;;;;;5050072;28;20078;-56
2021/04/14 00:36:48;;;;;;;13.55;8.38;;;4.70;99.90;;;;;;5052313;28;20033;-57
2021/04/14 00:39:17;;;;;;;11.85;7.93;;;4.70;99.90;;;;;;5051586;28;20036;-58
2021/04/14 00:41:44;;;;;;;13.15;8.40;;;4.70;99.90;;;;;;5052192;28;20041;-54
2021/04/14 00:44:10;;;;;;;13.63;8.50;;;4.70;99.90;;;;;;5051481;28;20056;-57
2021/04/14 00:46:35;;;;;;;13.80;7.68;;;4.80;99.90;;;;;;5051232;28;20039;-58
2021/04/14 00:49:01;;;;;;;20.73;8.63;;;4.80;99.90;;;;;;5051812;28;20033;-57
2021/04/14 00:51:28;;;;;;;12.40;8.32;;;4.80;99.90;;;;;;5052017;28;20032;-56
2021/04/14 00:53:54;;;;;;;17.15;8.50;;;4.80;99.90;;;;;;5051542;28;20048;-58
2021/04/14 00:56:20;;;;;;;13.85;8.38;;;4.80;99.90;;;;;;5051680;28;20033;-54
2021/04/14 00:58:45;;;;;;;33.92;10.02;;;4.70;99.90;;;;;;5051222;28;20444;-56
2021/04/14 01:01:12;;;;;;;14.00;8.95;;;4.80;99.90;;;;;;5052182;28;20061;-57
2021/04/14 01:03:38;;;;;;;12.75;8.35;;;4.80;99.90;;;;;;5051602;28;20482;-55
2021/04/14 01:06:08;;;;;;;14.70;8.23;;;4.80;99.90;;;;;;5051670;28;20021;-58
2021/04/14 01:08:35;;;;;;;14.43;8.38;;;4.80;99.90;;;;;;5051114;28;20033;-56
2021/04/14 01:11:01;;;;;;;11.15;8.13;;;4.90;99.90;;;;;;5051478;28;20040;-59
2021/04/14 01:13:27;;;;;;;14.13;8.23;;;5.00;99.90;;;;;;5051557;28;20471;-58
2021/04/14 01:15:53;;;;;;;13.35;8.85;;;5.10;99.90;;;;;;5051446;28;20142;-56
2021/04/14 01:18:22;;;;;;;14.82;8.70;;;5.10;99.90;;;;;;5050637;28;20033;-57
2021/04/14 01:20:48;;;;;;;11.05;8.18;;;5.20;99.90;;;;;;5051005;28;20063;-53
2021/04/14 01:23:15;;;;;;;12.65;8.10;;;5.30;99.90;;;;;;5051219;28;20064;-59
2021/04/14 01:25:42;;;;;;;14.02;8.10;;;5.30;99.90;;;;;;5029022;28;667039;-58
2021/04/14 01:28:24;;;;;;;15.07;8.27;;;5.30;99.90;;;;;;5052714;28;20086;-59
2021/04/14 01:30:52;;;;;;;12.48;7.78;;;5.20;99.90;;;;;;5052206;28;20037;-56
2021/04/14 01:33:19;;;;;;;13.68;8.65;;;5.30;99.90;;;;;;5050493;28;20387;-58
2021/04/14 01:35:45;;;;;;;14.98;8.30;;;5.20;99.90;;;;;;5052153;28;20060;-58
2021/04/14 01:38:10;;;;;;;14.13;8.73;;;5.20;99.90;;;;;;5051713;28;20069;-55
2021/04/14 01:40:36;;;;;;;15.18;8.43;;;5.20;99.90;;;;;;5052140;28;20474;-57
2021/04/14 01:43:03;;;;;;;17.48;9.13;;;5.30;99.90;;;;;;5051865;28;20120;-55
2021/04/14 01:45:35;;;;;;;12.30;8.13;;;5.20;99.90;;;;;;5051645;28;20035;-56
2021/04/14 01:48:01;;;;;;;12.60;8.38;;;5.20;99.90;;;;;;5052085;28;20040;-54
2021/04/14 01:50:27;;;;;;;14.32;9.18;;;5.20;99.90;;;;;;5051187;28;20037;-57
2021/04/14 01:52:53;;;;;;;13.00;9.13;;;5.30;99.90;;;;;;5051926;28;20029;-58
2021/04/14 01:55:20;;;;;;;16.13;10.25;;;5.30;99.90;;;;;;5051884;28;20060;-57
2021/04/14 01:57:47;;;;;;;17.17;10.40;;;5.40;99.90;;;;;;5047677;28;20033;-58
2021/04/14 02:00:32;;;;;;;13.25;9.10;;;5.50;99.90;;;;;;5047684;28;20057;-57
2021/04/14 02:02:58;;;;;;;16.25;9.73;;;5.50;99.90;;;;;;5045831;28;20032;-56
2021/04/14 02:05:28;;;;;;;13.82;9.70;;;5.50;99.90;;;;;;5050860;28;20041;-55
2021/04/14 02:07:54;;;;;;;15.55;9.65;;;5.60;99.90;;;;;;5051270;28;20099;-56
2021/04/14 02:10:21;;;;;;;19.77;10.05;;;5.60;99.90;;;;;;5050178;28;20441;-58
2021/04/14 02:12:47;;;;;;;13.48;9.10;;;5.60;99.90;;;;;;5051260;28;20037;-56
2021/04/14 02:15:18;;;;;;;14.10;9.43;;;5.60;99.90;;;;;;5051626;28;20029;-59
2021/04/14 02:17:44;;;;;;;15.38;9.90;;;5.60;99.90;;;;;;5049823;28;20029;-59
2021/04/14 02:20:11;;;;;;;18.33;10.40;;;5.60;99.90;;;;;;5051363;28;20383;-57
2021/04/14 02:22:37;;;;;;;16.48;10.98;;;5.60;99.90;;;;;;5051152;28;20028;-56
2021/04/14 02:25:05;;;;;;;13.85;9.35;;;5.60;99.90;;;;;;5051032;28;20044;-54
2021/04/14 02:27:31;;;;;;;16.83;9.88;;;5.70;99.90;;;;;;5050323;28;20029;-57
2021/04/14 02:29:57;;;;;;;15.00;9.70;;;5.70;99.90;;;;;;5050969;28;20043;-59
2021/04/14 02:32:23;;;;;;;15.07;9.90;;;5.70;99.90;;;;;;5051660;28;20041;-55
2021/04/14 02:34:49;;;;;;;18.73;9.30;;;5.70;99.90;;;;;;5050935;28;20029;-57
2021/04/14 02:37:14;;;;;;;7.93;5.30;;;5.80;99.90;;;;;;5050663;28;20484;-58
2021/04/14 02:39:40;;;;;;;7.72;4.72;;;6.00;99.90;;;;;;5051144;28;20452;-58
2021/04/14 02:42:06;;;;;;;10.13;4.95;;;6.10;99.90;;;;;;5051073;28;20060;-56
2021/04/14 02:44:32;;;;;;;5.93;4.10;;;6.10;99.90;;;;;;5050875;28;20045;-57
2021/04/14 02:46:57;;;;;;;9.40;4.38;;;6.20;99.90;;;;;;5050424;28;20028;-58
2021/04/14 02:49:24;;;;;;;8.32;5.00;;;6.30;99.90;;;;;;5050230;28;20382;-55
2021/04/14 02:51:51;;;;;;;8.25;5.28;;;6.40;99.90;;;;;;5051186;28;20033;-57
2021/04/14 02:54:18;;;;;;;7.03;4.78;;;6.40;99.90;;;;;;5050529;28;20793;-54
2021/04/14 02:56:43;;;;;;;8.20;4.93;;;6.50;99.90;;;;;;5051003;28;20511;-58
2021/04/14 02:59:09;;;;;;;11.75;5.50;;;6.40;99.90;;;;;;5050950;28;20113;-57
2021/04/14 03:01:35;;;;;;;8.15;5.90;;;6.50;99.90;;;;;;5050622;28;20453;-54
2021/04/14 03:04:01;;;;;;;12.75;5.70;;;6.50;99.90;;;;;;5050284;28;20036;-59
2021/04/14 03:06:26;;;;;;;15.55;6.50;;;6.50;99.90;;;;;;5038194;28;20025;-53
2021/04/14 03:08:52;;;;;;;11.57;6.63;;;6.50;99.90;;;;;;5050525;28;20039;-59
2021/04/14 03:11:18;;;;;;;9.82;5.95;;;6.40;99.90;;;;;;5049936;28;20029;-58
2021/04/14 03:13:44;;;;;;;10.02;6.03;;;6.40;99.90;;;;;;5050901;28;20479;-57
2021/04/14 03:16:09;;;;;;;15.98;6.50;;;6.40;99.90;;;;;;5050503;28;20033;-58
2021/04/14 03:18:35;;;;;;;33.72;7.20;;;6.40;99.90;;;;;;5050700;28;20037;-58
2021/04/14 03:21:02;;;;;;;9.38;6.28;;;6.30;99.90;;;;;;5048755;28;20463;-56
2021/04/14 03:23:28;;;;;;;8.60;6.05;;;6.30;99.90;;;;;;5050000;28;20083;-58
2021/04/14 03:25:53;;;;;;;11.85;5.93;;;6.20;99.90;;;;;;5050609;28;20761;-58
2021/04/14 03:28:19;;;;;;;16.30;6.88;;;6.10;99.90;;;;;;5050715;28;20432;-55
2021/04/14 03:30:45;;;;;;;7.88;6.03;;;6.00;99.90;;;;;;5050181;28;20391;-57
2021/04/14 03:33:12;;;;;;;9.27;6.43;;;6.00;99.90;;;;;;5049575;28;20063;-57
2021/04/14 03:35:38;;;;;;;17.25;6.55;;;5.80;99.90;;;;;;5049993;28;20029;-54
2021/04/14 03:38:04;;;;;;;12.10;6.38;;;5.70;99.90;;;;;;5050358;28;20052;-56
2021/04/14 03:40:31;;;;;;;10.52;6.28;;;5.60;99.90;;;;;;5049202;28;20029;-56
2021/04/14 03:42:57;;;;;;;12.00;6.13;;;5.50;99.90;;;;;;5050381;28;20033;-54
2021/04/14 03:45:30;;;;;;;16.48;6.38;;;5.40;99.90;;;;;;5049969;28;20036;-58
2021/04/14 03:47:56;;;;;;;26.88;7.10;;;5.40;99.90;;;;;;5050145;28;20029;-55
2021/04/14 03:50:22;;;;;;;13.88;6.40;;;5.40;99.90;;;;;;5050271;28;20486;-56
2021/04/14 03:52:49;;;;;;;45.90;9.40;;;5.30;99.90;;;;;;5050270;28;20040;-57
2021/04/14 03:55:17;;;;;;;24.23;7.70;;;5.30;99.90;;;;;;5050193;28;20052;-56
2021/04/14 03:57:43;;;;;;;109.75;14.25;;;5.40;99.90;;;;;;5050068;28;20439;-56
2021/04/14 04:00:11;;;;;;;22.75;7.70;;;5.40;99.90;;;;;;5050230;28;20131;-57
2021/04/14 04:02:37;;;;;;;10.75;6.43;;;5.40;99.90;;;;;;5040144;28;20039;-58
2021/04/14 04:05:03;;;;;;;20.88;6.80;;;5.40;99.90;;;;;;5050275;28;20466;-56
2021/04/14 04:07:29;;;;;;;12.13;6.40;;;5.30;99.90;;;;;;5049671;28;20131;-57
2021/04/14 04:09:55;;;;;;;11.13;6.82;;;5.30;99.90;;;;;;5050525;28;20043;-59
2021/04/14 04:12:20;;;;;;;12.32;6.55;;;5.30;99.90;;;;;;5049401;28;20041;-55
2021/04/14 04:14:48;;;;;;;36.90;8.18;;;5.40;99.90;;;;;;5052338;28;20029;-58
2021/04/14 04:17:16;;;;;;;15.02;6.95;;;5.40;99.90;;;;;;5053647;28;20025;-58
2021/04/14 04:19:42;;;;;;;17.92;8.65;;;5.30;99.90;;;;;;5053385;28;20086;-56
2021/04/14 04:22:09;;;;;;;13.32;7.13;;;5.40;99.90;;;;;;5053516;28;20090;-56
2021/04/14 04:24:35;;;;;;;27.42;7.18;;;5.40;99.90;;;;;;5052894;28;20040;-58
2021/04/14 04:27:01;;;;;;;28.42;8.23;;;5.30;99.90;;;;;;5053515;28;20037;-54
2021/04/14 04:29:26;;;;;;;22.10;8.25;;;5.30;99.90;;;;;;5052458;28;20402;-57
2021/04/14 04:31:53;;;;;;;31.98;7.97;;;5.40;99.90;;;;;;5052816;28;20385;-55
2021/04/14 04:34:18;;;;;;;22.95;7.00;;;5.40;99.90;;;;;;5053474;28;20041;-57
2021/04/14 04:36:44;;;;;;;24.83;7.55;;;5.40;99.90;;;;;;5051903;28;20091;-55
2021/04/14 04:39:10;;;;;;;15.57;7.07;;;5.30;99.90;;;;;;5053281;28;20048;-56
2021/04/14 04:41:36;;;;;;;34.35;7.75;;;5.20;99.90;;;;;;5052579;28;20036;-56
2021/04/14 04:44:01;;;;;;;32.03;8.38;;;5.20;99.90;;;;;;5053147;28;20029;-57
2021/04/14 04:46:27;;;;;;;27.50;8.02;;;5.30;99.90;;;;;;5053410;28;20112;-57
2021/04/14 04:48:53;;;;;;;16.60;7.13;;;5.30;99.90;;;;;;5052864;28;20483;-56
2021/04/14 04:51:18;;;;;;;15.98;7.47;;;5.40;99.90;;;;;;5051497;28;20048;-57
2021/04/14 04:53:44;;;;;;;22.33;7.25;;;5.30;99.90;;;;;;5053265;28;20033;-57
2021/04/14 04:56:10;;;;;;;12.15;7.15;;;5.20;99.90;;;;;;5052349;28;20040;-57
2021/04/14 04:58:35;;;;;;;19.10;7.50;;;5.10;99.90;;;;;;5052640;28;20032;-58
2021/04/14 05:01:01;;;;;;;21.20;7.25;;;5.00;99.90;;;;;;5052953;28;20443;-56
2021/04/14 05:03:29;;;;;;;10.77;7.25;;;5.00;99.90;;;;;;5052607;28;20037;-57
2021/04/14 05:05:57;;;;;;;41.72;9.45;;;5.00;99.90;;;;;;5052288;28;20119;-57
2021/04/14 05:08:23;;;;;;;22.02;7.43;;;5.00;99.90;;;;;;5052158;28;20475;-58
2021/04/14 05:10:49;;;;;;;27.33;8.98;;;4.90;99.90;;;;;;5052701;28;20060;-58
2021/04/14 05:13:15;;;;;;;10.90;7.03;;;4.80;99.90;;;;;;5052603;28;20040;-56
2021/04/14 05:15:41;;;;;;;18.95;7.10;;;4.80;99.90;;;;;;5052693;28;20040;-56
2021/04/14 05:18:08;;;;;;;13.95;7.03;;;4.70;99.90;;;;;;5052574;28;20071;-56
2021/04/14 05:20:34;;;;;;;17.55;7.78;;;4.70;99.90;;;;;;5052249;28;20024;-56
2021/04/14 05:23:00;;;;;;;14.32;7.90;;;4.70;99.90;;;;;;5052161;28;20082;-57
2021/04/14 05:25:31;;;;;;;29.38;9.85;;;4.60;99.90;;;;;;5051696;28;20124;-55
2021/04/14 05:28:02;;;;;;;32.05;8.05;;;4.60;99.90;;;;;;5051009;28;20044;-58
2021/04/14 05:30:29;;;;;;;34.38;9.02;;;4.60;99.90;;;;;;5051875;28;20041;-56
2021/04/14 05:32:54;;;;;;;42.53;8.90;;;4.70;99.90;;;;;;5052672;28;20115;-58
2021/04/14 05:35:20;;;;;;;17.63;8.40;;;4.80;99.90;;;;;;5051821;28;20511;-56
2021/04/14 05:37:46;;;;;;;25.38;8.75;;;4.80;99.90;;;;;;5051912;28;20694;-57
2021/04/14 05:40:12;;;;;;;18.27;8.63;;;4.80;99.90;;;;;;5051976;28;20040;-55
2021/04/14 05:42:44;;;;;;;27.63;10.23;;;4.70;99.90;;;;;;5052134;28;20028;-56
2021/04/14 05:45:12;;;;;;;32.22;9.25;;;4.70;99.90;;;;;;5050992;28;20391;-58
2021/04/14 05:47:38;;;;;;;21.50;9.45;;;4.80;99.90;;;;;;5051542;28;20032;-56
2021/04/14 05:50:07;;;;;;;26.00;9.05;;;4.90;99.90;;;;;;5051484;28;20040;-57
2021/04/14 05:52:32;;;;;;;40.70;10.55;;;5.00;99.90;;;;;;5051662;28;20049;-57
2021/04/14 05:54:58;;;;;;;30.95;9.65;;;5.00;99.90;;;;;;5052082;28;20532;-59
2021/04/14 05:57:24;;;;;;;21.55;10.13;;;5.10;99.90;;;;;;5051396;28;20502;-54
2021/04/14 05:59:49;;;;;;;31.80;9.60;;;5.10;99.90;;;;;;5051170;28;20041;-57
2021/04/14 06:02:15;;;;;;;39.35;10.65;;;5.10;99.90;;;;;;5051725;28;20029;-57
2021/04/14 06:04:41;;;;;;;36.17;10.38;;;5.10;99.90;;;;;;5050869;28;20032;-59
2021/04/14 06:07:07;;;;;;;37.17;10.23;;;5.20;99.90;;;;;;5051761;28;20036;-56
2021/04/14 06:09:32;;;;;;;31.38;9.90;;;5.30;99.90;;;;;;5051598;28;20025;-58
2021/04/14 06:11:58;;;;;;;31.73;11.05;;;5.30;99.90;;;;;;5050978;28;20479;-57
2021/04/14 06:14:24;;;;;;;39.95;14.00;;;5.30;99.90;;;;;;5050961;28;20475;-58
2021/04/14 06:16:50;;;;;;;29.65;12.10;;;5.30;99.90;;;;;;5046692;28;20411;-56
2021/04/14 06:19:16;;;;;;;45.85;12.80;;;5.30;99.90;;;;;;5051205;28;20532;-55
2021/04/14 06:21:43;;;;;;;38.55;11.00;;;5.30;99.90;;;;;;5050420;28;20044;-58
2021/04/14 06:24:09;;;;;;;59.88;13.73;;;5.40;99.90;;;;;;5050314;28;20057;-57
2021/04/14 06:26:41;;;;;;;46.10;12.60;;;5.50;99.90;;;;;;5050858;28;20032;-55
2021/04/14 06:29:07;;;;;;;30.48;11.50;;;5.70;99.90;;;;;;5049481;28;20148;-57
2021/04/14 06:31:40;;;;;;;40.33;12.10;;;5.70;99.90;;;;;;5050982;28;20128;-60
2021/04/14 06:34:16;;;;;;;32.65;11.25;;;5.60;99.90;;;;;;5051220;28;20426;-58
2021/04/14 06:36:44;;;;;;;52.22;12.45;;;5.70;99.90;;;;;;5048869;28;20112;-58
2021/04/14 06:39:11;;;;;;;38.60;12.60;;;5.80;99.90;;;;;;5051430;28;20024;-56
2021/04/14 06:44:40;;;;;;;58.97;12.10;;;6.00;99.90;;;;;;5050281;28;20037;-56
2021/04/14 06:47:37;;;;;;;29.92;11.60;;;6.00;99.90;;;;;;5049883;28;20096;-57
2021/04/14 06:50:16;;;;;;;30.13;12.00;;;6.10;99.90;;;;;;5050736;28;20033;-57
2021/04/14 06:52:51;;;;;;;42.00;12.75;;;6.20;99.90;;;;;;5049938;28;20048;-58
2021/04/14 06:55:30;;;;;;;;;;;6.20;99.90;;;;;;5050697;28;20028;-55
2021/04/14 06:58:02;;;;;;;33.95;12.88;;;6.20;99.90;;;;;;5050216;28;19912;-59
2021/04/14 07:00:33;;;;;;;27.98;12.52;;;6.30;99.90;;;;;;5049484;28;20037;-59
2021/04/14 07:03:27;;;;;;;33.22;13.48;;;6.50;99.90;;;;;;5048961;28;20048;-56
2021/04/14 07:05:58;;;;;;;29.20;13.93;;;6.60;99.90;;;;;;5049808;28;20025;-53
2021/04/14 07:08:34;;;;;;;40.13;14.48;;;6.70;99.90;;;;;;5050087;28;20040;-56
2021/04/14 07:11:03;;;;;;;37.60;15.05;;;6.80;99.90;;;;;;5050664;28;20043;-54
2021/04/14 07:13:33;;;;;;;40.08;15.65;;;7.00;99.90;;;;;;5050455;28;20098;-58
2021/04/14 07:16:34;;;;;;;37.97;15.52;;;7.20;99.90;;;;;;5049938;28;20043;-58
2021/04/14 07:19:27;;;;;;;23.60;13.50;;;7.30;99.90;;;;;;5049963;28;20051;-57
2021/04/14 07:22:01;;;;;;;25.48;13.07;;;7.40;99.90;;;;;;5050336;28;20475;-57
2021/04/14 07:24:35;;;;;;;32.75;13.85;;;7.60;99.90;;;;;;5049614;28;20045;-56
2021/04/14 07:27:15;;;;;;;39.20;14.25;;;7.90;99.90;;;;;;5049980;28;20065;-57
2021/04/14 07:29:51;;;;;;;41.25;13.40;;;8.40;99.90;;;;;;5049429;28;20033;-58
2021/04/14 07:33:07;;;;;;;52.30;14.63;;;8.90;99.90;;;;;;5049749;28;20071;-56
2021/04/14 07:35:53;;;;;;;29.52;11.68;;;9.20;99.90;;;;;;5038359;28;20116;-55
2021/04/14 07:38:39;;;;;;;27.23;11.05;;;9.40;99.90;;;;;;5047568;28;20029;-56
2021/04/14 07:41:33;;;;;;;33.10;12.43;;;9.80;99.90;;;;;;5048718;28;20087;-55
2021/04/14 07:44:22;;;;;;;19.77;10.20;;;10.00;99.90;;;;;;5043694;28;20032;-56
2021/04/14 07:46:48;;;;;;;19.60;10.32;;;10.10;99.90;;;;;;5046587;28;20051;-56
2021/04/14 07:49:17;;;;;;;25.00;11.05;;;10.20;99.90;;;;;;5046749;28;20033;-58
2021/04/14 07:51:43;;;;;;;31.38;10.85;;;10.40;99.90;;;;;;5053334;28;20029;-56
2021/04/14 07:54:23;;;;;;;24.10;9.90;;;10.70;99.90;;;;;;5051058;28;20029;-57
2021/04/14 07:56:55;;;;;;;20.58;10.10;;;10.80;99.90;;;;;;5050809;28;20031;-56
2021/04/14 07:59:33;;;;;;;28.80;10.07;;;10.90;99.90;;;;;;5050484;28;20435;-58
2021/04/14 08:02:11;;;;;;;25.42;11.00;;;10.90;99.90;;;;;;5052566;28;20449;-56
2021/04/14 08:04:47;;;;;;;39.05;10.40;;;11.10;99.90;;;;;;5048885;28;20135;-57
2021/04/14 08:07:20;;;;;;;36.95;10.82;;;11.30;99.90;;;;;;5047276;28;20017;-55
2021/04/14 08:09:55;;;;;;;40.22;10.85;;;11.60;99.90;;;;;;5050950;28;20139;-57
2021/04/14 08:12:36;;;;;;;38.00;11.52;;;11.70;99.90;;;;;;5048980;28;20036;-55
2021/04/14 08:15:17;;;;;;;21.88;9.50;;;11.80;99.90;;;;;;5051502;28;20086;-53
2021/04/14 08:17:44;;;;;;;18.15;9.48;;;11.70;99.90;;;;;;5053479;28;20020;-56
2021/04/14 08:20:35;;;;;;;31.33;11.25;;;11.70;99.90;;;;;;5053612;28;20090;-57
2021/04/14 08:23:22;;;;;;;18.33;9.00;;;11.80;99.90;;;;;;5052960;28;20075;-57
2021/04/14 08:25:51;;;;;;;18.10;9.32;;;11.60;99.90;;;;;;5052341;28;20056;-55
2021/04/14 08:28:37;;;;;;;20.33;9.52;;;11.90;99.90;;;;;;5052925;28;20021;-56
2021/04/14 08:34:14;;;;;;;26.75;9.98;;;12.20;99.90;;;;;;5053134;28;20086;-56
2021/04/14 08:36:51;;;;;;;27.38;10.32;;;12.50;99.90;;;;;;5052951;28;20029;-56
2021/04/14 08:39:24;;;;;;;29.17;10.52;;;12.50;99.90;;;;;;5052948;28;20040;-56
2021/04/14 08:41:50;;;;;;;24.77;9.27;;;12.60;99.90;;;;;;5052294;28;20080;-58
2021/04/14 08:44:33;;;;;;;26.13;9.52;;;12.70;99.90;;;;;;5052135;28;20086;-57
2021/04/14 08:47:13;;;;;;;16.75;9.27;;;12.70;99.90;;;;;;5051126;28;20025;-56
2021/04/14 08:49:40;;;;;;;17.38;9.52;;;12.90;99.90;;;;;;5052317;28;20086;-56
2021/04/14 08:52:11;;;;;;;35.40;11.07;;;13.10;99.90;;;;;;5051961;28;20529;-57
2021/04/14 08:54:37;;;;;;;22.13;10.13;;;13.20;99.90;;;;;;5051984;28;20364;-57
2021/04/14 08:57:06;;;;;;;18.98;9.23;;;13.10;99.90;;;;;;5051744;28;20029;-58
2021/04/14 08:59:32;;;;;;;22.83;9.23;;;13.30;99.90;;;;;;5050881;28;20033;-57
2021/04/14 09:01:58;;;;;;;17.25;8.70;;;13.10;98.70;;;;;;5050948;28;20086;-58
2021/04/14 09:04:24;;;;;;;15.73;8.60;;;13.10;98.80;;;;;;5051307;28;20390;-59
2021/04/14 09:06:52;;;;;;;22.58;8.68;;;13.20;99.20;;;;;;5052785;28;20039;-55
2021/04/14 09:09:24;;;;;;;25.85;8.77;;;13.40;99.10;;;;;;5050071;28;20479;-57
2021/04/14 09:12:09;;;;;;;19.75;8.93;;;13.30;99.80;;;;;;5041247;28;20119;-57
2021/04/14 09:14:36;;;;;;;18.15;8.18;;;13.40;99.90;;;;;;5049751;28;20036;-58
2021/04/14 09:17:16;;;;;;;16.90;7.65;;;12.90;99.50;;;;;;5052088;28;20037;-56
2021/04/14 09:19:42;;;;;;;18.98;8.50;;;12.80;99.20;;;;;;5047138;28;20037;-57
2021/04/14 09:22:17;;;;;;;32.15;8.80;;;13.00;99.90;;;;;;5050508;28;20078;-57
2021/04/14 09:24:47;;;;;;;23.25;7.70;;;13.20;99.60;;;;;;5049656;28;20487;-58
2021/04/14 09:27:31;;;;;;;14.55;6.28;;;13.40;96.50;;;;;;5050320;28;20750;-55
2021/04/14 09:30:02;;;;;;;11.05;5.03;;;13.60;94.80;;;;;;5038782;28;20040;-58
2021/04/14 09:32:49;;;;;;;10.10;5.45;;;13.60;93.20;;;;;;5047082;28;20048;-58
2021/04/14 09:35:17;;;;;;;23.50;6.85;;;13.40;94.10;;;;;;5046662;28;20223;-58
2021/04/14 09:37:43;;;;;;;13.82;6.00;;;13.40;94.90;;;;;;5046924;28;20029;-58
2021/04/14 09:40:10;;;;;;;11.38;5.03;;;13.60;94.30;;;;;;5050885;28;20035;-57
2021/04/14 09:42:39;;;;;;;12.10;5.65;;;13.60;93.20;;;;;;5051440;28;20040;-56
2021/04/14 09:45:32;;;;;;;11.40;4.85;;;13.50;93.20;;;;;;5050916;28;20025;-56
2021/04/14 09:48:12;;;;;;;11.35;5.05;;;13.30;92.80;;;;;;5040363;28;20033;-58
2021/04/14 09:50:39;;;;;;;13.15;4.80;;;13.20;92.50;;;;;;5051536;28;20032;-55
2021/04/14 09:53:18;;;;;;;11.60;4.55;;;13.20;92.50;;;;;;5052227;28;20033;-55
2021/04/14 09:56:20;;;;;;;10.10;5.40;;;13.30;92.20;;;;;;5051988;28;20036;-55
2021/04/14 09:59:04;;;;;;;9.15;4.93;;;13.00;93.40;;;;;;5048537;28;20041;-58
2021/04/14 10:01:35;;;;;;;21.08;5.75;;;12.90;93.70;;;;;;5040845;28;20043;-56
2021/04/14 10:04:23;;;;;;;22.35;6.60;;;12.70;93.70;;;;;;5051801;28;20087;-57
2021/04/14 10:07:01;;;;;;;9.95;4.78;;;13.00;93.80;;;;;;5051950;28;20029;-57
2021/04/14 10:09:30;;;;;;;18.70;5.22;;;13.00;92.60;;;;;;5051333;28;20559;-56
2021/04/14 10:12:07;;;;;;;9.45;4.38;;;12.90;93.00;;;;;;5051002;28;20067;-57
2021/04/14 10:14:41;;;;;;;11.32;4.55;;;12.70;91.90;;;;;;5050159;28;20376;-57
2021/04/14 10:17:09;;;;;;;14.80;4.10;;;12.80;91.70;;;;;;5051885;28;20040;-57
2021/04/14 10:19:36;;;;;;;11.50;4.78;;;12.90;92.10;;;;;;5051479;28;20039;-55
2021/04/14 10:22:15;;;;;;;36.72;6.60;;;12.90;91.50;;;;;;5051517;28;20032;-56
2021/04/14 10:24:41;;;;;;;14.90;5.30;;;12.80;91.20;;;;;;5050087;28;20069;-54
2021/04/14 10:27:08;;;;;;;11.18;4.50;;;13.00;91.90;;;;;;5051433;28;20098;-56
2021/04/14 10:29:40;;;;;;;11.45;4.10;;;13.20;91.90;;;;;;5050436;28;20482;-55
2021/04/14 10:32:06;;;;;;;12.07;4.45;;;13.20;90.50;;;;;;5051031;28;20087;-58
2021/04/14 10:34:35;;;;;;;13.43;4.07;;;12.90;90.90;;;;;;5051567;28;20128;-54
2021/04/14 10:37:15;;;;;;;13.63;4.55;;;12.80;91.40;;;;;;5051135;28;20037;-54
2021/04/14 10:39:41;;;;;;;9.30;4.28;;;12.90;92.40;;;;;;5051098;28;20125;-57
2021/04/14 10:42:22;;;;;;;14.40;5.15;;;13.20;91.80;;;;;;5050300;28;20497;-57
2021/04/14 10:44:49;;;;;;;10.85;4.60;;;13.20;91.60;;;;;;5051012;28;20083;-58
2021/04/14 10:47:42;;;;;;;14.15;4.50;;;13.10;91.90;;;;;;5043886;28;20033;-53
2021/04/14 10:50:14;;;;;;;10.50;4.07;;;12.90;92.40;;;;;;5049516;28;20065;-59
2021/04/14 10:52:41;;;;;;;14.48;5.85;;;12.80;92.40;;;;;;5051033;28;20037;-58
2021/04/14 10:55:14;;;;;;;11.50;4.35;;;12.90;92.20;;;;;;5050916;28;20033;-58
2021/04/14 10:57:43;;;;;;;7.65;3.97;;;13.00;92.70;;;;;;5050661;28;20025;-55
2021/04/14 11:00:29;;;;;;;10.13;4.10;;;13.30;92.30;;;;;;5050556;28;20033;-57
2021/04/14 11:02:56;;;;;;;7.45;3.85;;;13.20;92.00;;;;;;5050880;28;20064;-57
2021/04/14 11:05:24;;;;;;;10.65;3.85;;;12.80;92.10;;;;;;5049603;28;20393;-58
2021/04/14 11:07:52;;;;;;;8.80;3.70;;;12.80;92.50;;;;;;5049629;28;20033;-56
2021/04/14 11:10:23;;;;;;;7.50;3.88;;;12.70;92.90;;;;;;5050802;28;20029;-58
2021/04/14 11:12:50;;;;;;;8.30;4.60;;;12.40;93.10;;;;;;5050332;28;20063;-57
2021/04/14 11:15:20;;;;;;;6.00;4.15;;;12.30;94.20;;;;;;5049379;28;20032;-58
2021/04/14 11:17:57;;;;;;;12.48;4.35;;;12.00;94.20;;;;;;5044268;28;20025;-57
2021/04/14 11:20:24;;;;;;;7.07;4.00;;;12.20;94.40;;;;;;5047050;28;20029;-57
2021/04/14 11:22:56;;;;;;;10.45;3.85;;;12.30;93.60;;;;;;5050497;28;20033;-56
2021/04/14 11:25:42;;;;;;;7.15;3.40;;;12.70;93.10;;;;;;5054411;28;20045;-58
2021/04/14 11:28:13;;;;;;;12.00;3.30;;;12.70;91.70;;;;;;5046931;28;20048;-56
2021/04/14 11:30:54;;;;;;;7.68;3.30;;;12.30;92.10;;;;;;5054101;28;20056;-58
2021/04/14 11:33:33;;;;;;;6.95;2.97;;;12.20;92.40;;;;;;5054457;28;20395;-54
2021/04/14 11:35:59;;;;;;;4.47;2.80;;;12.20;92.80;;;;;;5054655;28;20033;-56
2021/04/14 11:38:39;;;;;;;7.90;3.47;;;12.00;92.50;;;;;;5054631;28;20025;-57
2021/04/14 11:41:34;;;;;;;8.07;3.42;;;11.80;92.80;;;;;;5041238;28;20543;-58
2021/04/14 11:44:12;;;;;;;23.98;3.10;;;12.00;93.20;;;;;;5037499;28;20116;-58
2021/04/14 11:46:38;;;;;;;4.72;2.58;;;12.20;92.70;;;;;;5054611;28;20536;-56
2021/04/14 11:49:10;;;;;;;13.32;2.80;;;12.30;91.80;;;;;;5054222;28;20017;-56
2021/04/14 11:51:41;;;;;;;7.03;2.47;;;12.60;92.30;;;;;;5054096;28;20425;-57
2021/04/14 11:54:15;;;;;;;8.63;2.95;;;12.40;91.60;;;;;;5054217;28;20368;-58
2021/04/14 11:56:44;;;;;;;7.80;2.97;;;12.40;92.10;;;;;;5054231;28;20033;-56
2021/04/14 11:59:31;;;;;;;6.13;2.85;;;12.40;91.70;;;;;;5053823;28;20044;-55
2021/04/14 12:02:01;;;;;;;7.57;2.70;;;12.60;91.60;;;;;;5053708;28;20056;-56
2021/04/14 12:04:27;;;;;;;11.30;3.00;;;12.40;91.70;;;;;;5054352;28;20021;-57
2021/04/14 12:06:53;;;;;;;18.58;3.67;;;12.30;92.30;;;;;;5053811;28;20044;-54
2021/04/14 12:09:19;;;;;;;23.80;6.05;;;12.30;92.20;;;;;;5044500;28;20029;-58
2021/04/14 12:11:45;;;;;;;8.77;2.70;;;12.30;92.20;;;;;;5042838;28;20112;-55
2021/04/14 12:14:11;;;;;;;10.10;2.95;;;12.10;92.50;;;;;;5046534;28;20041;-57
2021/04/14 12:16:37;;;;;;;13.65;5.18;;;12.00;92.30;;;;;;5051850;28;20033;-55
2021/04/14 12:19:04;;;;;;;5.50;2.70;;;12.10;92.60;;;;;;5043998;28;20037;-54
2021/04/14 12:21:30;;;;;;;13.90;4.03;;;12.00;93.00;;;;;;5052846;28;20471;-55
2021/04/14 12:23:56;;;;;;;4.97;2.47;;;12.00;92.90;;;;;;5053586;28;20364;-57
2021/04/14 12:26:21;;;;;;;10.27;2.67;;;12.10;92.80;;;;;;5052815;28;20051;-54
2021/04/14 12:28:47;;;;;;;4.97;2.50;;;11.90;93.30;;;;;;5053723;28;20040;-55
2021/04/14 12:31:13;;;;;;;14.75;3.22;;;11.80;93.30;;;;;;5048139;28;20029;-57
2021/04/14 12:33:39;;;;;;;7.85;2.40;;;11.90;93.50;;;;;;5053170;28;20025;-57
2021/04/14 12:36:05;;;;;;;5.80;2.35;;;11.90;93.70;;;;;;5051834;28;20403;-57
2021/04/14 12:38:30;;;;;;;5.97;2.35;;;11.90;94.10;;;;;;5052519;28;20438;-55
2021/04/14 12:40:56;;;;;;;14.88;3.05;;;12.00;94.30;;;;;;5054052;28;20029;-57
2021/04/14 12:43:23;;;;;;;10.80;2.70;;;12.20;93.50;;;;;;5046883;28;20052;-54
2021/04/14 12:45:50;;;;;;;12.20;2.72;;;12.10;93.70;;;;;;5053219;28;20041;-58
2021/04/14 12:48:27;;;;;;;11.18;2.97;;;12.20;93.50;;;;;;5043887;28;20026;-57
2021/04/14 12:51:13;;;;;;;7.63;2.38;;;12.20;93.50;;;;;;5054724;28;20115;-56
2021/04/14 12:53:47;;;;;;;10.18;2.60;;;12.10;93.50;;;;;;5051157;28;20029;-56
2021/04/14 12:56:30;;;;;;;9.83;2.90;;;12.10;94.00;;;;;;5048908;28;20032;-56
2021/04/14 12:59:02;;;;;;;6.20;2.42;;;12.20;93.80;;;;;;5047123;28;20041;-55
2021/04/14 13:01:28;;;;;;;6.45;2.42;;;12.20;94.50;;;;;;5051453;28;20025;-58
2021/04/14 13:04:11;;;;;;;6.65;2.25;;;12.30;94.30;;;;;;5051499;28;20040;-58